Aviation Digital Data Service (ADDS)

Output produced by METARs form (1038 UTC 19 January 2019)
found at http://www.aviationweather.gov/metar/data/
 
DAUA 191000Z 02008KT CAVOK 11/M01 Q1021
TAF DAUA 190500Z 1906/2006 34012KT CAVOK 
     BECMG 1920/1923 24008KT
       
DABB 191030Z 23005KT 9999 FEW023 SCT040 14/09 Q1015
TAF DABB 190500Z 1906/2006 22008KT 8000 FEW026TCU BKN030 
     BECMG 1910/1912 29012KT 
     PROB40 
     TEMPO 1912/1918 5000 -RA BKN015 
     BECMG 1921/1924 20008KT 
     PROB40 
     TEMPO 2000/2006 4000 RA FEW020CB
       
DABT 191000Z 23003KT 9999 FEW020 BKN026 09/02 Q1016
TAF DABT 190500Z 1906/2006 22008KT 9999 FEW026 BKN030 
     PROB30 
     TEMPO 1906/1912 FEW023TCU 
     PROB30 
     TEMPO 1906/1908 3000 BR BKN015 
     BECMG 1910/1912 30011KT 
     TEMPO 1914/1924 FEW020TCU 
     PROB40 
     TEMPO 1918/1922 5000 -RA 
     BECMG 1920/1922 24008KT 
     PROB40 
     TEMPO 2000/2006 3000 BR BKN010
       
DAOR 191000Z 05004KT CAVOK 11/00 Q1022
TAF DAOR 190800Z 1909/1918 34010KT 9999 FEW030 
     PROB40 
     TEMPO 1909/1914 5000 HZ FEW030CB
       
DAAE 191000Z 25006KT 9000 FEW020 SCT043 BKN090 12/08 Q1017
TAF DAAE 190500Z 1906/2006 22008KT 9999 FEW023 BKN040 
     PROB40 
     TEMPO 1906/1915 5000 RA BKN015 FEW020CB 
     BECMG 1908/1910 28012KT 
     PROB40 
     TEMPO 1915/1920 5000 -RA FEW026TCU
       
DAUB 191000Z 31013KT 9999 FEW040 SCT100 15/06 Q1018
TAF DAUB 190500Z 1906/2006 30010KT 9999 FEW040 
     PROB30 
     TEMPO 1906/1914 FEW026TCU
       
DATM 191000Z 35020KT CAVOK 18/M15 Q1018
TAF DATM 190800Z 1909/1918 35015KT 8000 NSC 
     PROB40 
     TEMPO 1909/1915 35015G30KT 1500 BLSA
       
DAAD 191000Z 28012KT 8000 SCT030 BKN100 10/07 Q1018
TAF DAAD 190800Z 1909/1918 30010KT 8000 SCT026 SCT100 
     PROB30 
     TEMPO 1909/1912 5000 -RA FEW026CB
       
DAOI 191000Z 22004KT 6000 -RA SCT026 FEW030CB BKN066 09/09 Q1018
TAF DAOI 190500Z 1906/2006 24008KT 9999 SCT020 BKN026 
     TEMPO 1906/1915 5000 RA FEW030CB 
     TEMPO 1906/1915 4000 SHRA SCT026TCU FEW026CB
       
DABC 191030Z 07003KT 010V140 9999 SCT030 BKN200 08/05 Q1016
TAF DABC 190500Z 1906/2006 24007KT 9999 FEW026 SCT040 
     PROB40 
     TEMPO 1906/1909 2000 BR BKN013 
     BECMG 1912/1914 31012KT 
     PROB40 
     TEMPO 1912/1918 5000 -RA FEW26TCU 
     BECMG 1920/1922 16008KT 
     PROB40 
     TEMPO 2000/2006 3000 BR BKN015
       
DAAG 191030Z 27008KT 230V300 9999 FEW020 SCT040 BKN086 12/09 Q1018
TAF DAAG 190500Z 1906/2006 22008KT 8000 FEW020 SCT046 BKN080 
     TEMPO 1906/1916 FEW023TCU FEW026CB 
     PROB40 
     TEMPO 1906/1914 5000 -RA FEW026CB 
     BECMG 1910/1913 30012KT 
     BECMG 1918/1921 VRB02KT
       
DAAJ 191000Z 15016KT 8000 SCT045 SCT100 18/M06 Q1018
TAF DAAJ 190500Z 1906/2006 16008KT 8000 FEW046 SCT100 
     TEMPO 1906/1912 3000 HZ 
     PROB30 
     TEMPO 1906/1915 5000 -RA FEW040TCU 
     BECMG 1916/1919 32012KT
       
DAUE 191000Z 32004KT CAVOK 09/M03 Q1019
DAUO 191000Z 27005KT 9999 FEW040 12/M00 Q1018
TAF DAUO 190800Z 1909/1918 24008KT 9999 FEW033
       
DAUG 191000Z 34010KT CAVOK 13/01 Q1019
TAF DAUG 190500Z 1906/2006 VRB02KT CAVOK 
     BECMG 1907/1910 32010KT
       
DAUH 191030Z 19006KT CAVOK 12/04 Q1018
TAF DAUH 190500Z 1906/2006 VRB02KT CAVOK 
     BECMG 1910/1913 26010KT
       
DAAP 191000Z 30005KT 9999 SCT046 OVC080 12/M06 Q1014
TAF DAAP 190800Z 1909/1918 26010KT 7000 SCT046 BKN080 
     TEMPO 1909/1911 26020KT 3000 DRSA FEW040TCU 
     PROB40 
     TEMPO 1909/1913 5000 -RA FEW040CB
       
DAUZ 191000Z 07006KT 9999 FEW046 SCT080 12/M08 Q1014
TAF DAUZ 190500Z 1906/2006 35012KT CAVOK 
     PROB30 
     TEMPO 1913/1916 35015G25KT 5000 DRSA
       
DAUI 191000Z 03010KT CAVOK 15/M03 Q1018
TAF DAUI 190500Z 1906/2006 06014KT CAVOK 
     BECMG 1920/1923 VRB02KT
       
DAAV 191000Z 16005KT 9999 SCT020 BKN030 10/09 Q1017
TAF DAAV 190500Z 1906/2006 21008KT 9999 FEW023 BKN090 
     PROB40 
     TEMPO 1906/1915 5000 RA BKN015 FEW020CB 
     BECMG 1908/1910 29012KT 
     PROB30 
     TEMPO 1915/1920 5000 -RA FEW26TCU
       
DAUL 191000Z 24006KT 9999 FEW030 SCT080 08/02 Q1019
TAF DAUL 190800Z 1909/1918 30010KT 9999 FEW030 BKN080 
     PROB30 
     TEMPO 1909/1912 FEW026CB
       
DAOV 191000Z 26013KT 9999 FEW016 SCT023 BKN026 10/06 Q1019
TAF DAOV 190800Z 1909/1918 25006KT 9000 SCT013 SCT023 BKN026 
     BECMG 1910/1913 25012KT
       
DAAY 191000Z 29006KT 9999 FEW020 SCT026 06/03 Q1023
TAF DAAY 190800Z 1909/1918 30014KT 9999 FEW020 SCT026
       
DAOO 191030Z 22014KT 9999 FEW023 BKN026 11/09 Q1019
TAF DAOO 190500Z 1906/2006 26011KT 9999 FEW013 BKN026 
     TEMPO 1906/1918 24015G25KT 6000 RA SCT026TCU BKN030
       
DAOL 190900Z 25022KT 8000 SCT026 BKN100 11/09 Q1019
DAUU 191000Z 00000KT CAVOK 13/M02 Q1018
TAF DAUU 190800Z 1909/1918 VRB02KT CAVOK 
     BECMG 1910/1913 32010KT
       
DAAS 191000Z 24004KT 6000 SCT010 BKN026 04/01 Q1016
TAF DAAS 190500Z 1906/2006 23008KT 8000 FEW030 BKN040 
     PROB30 
     TEMPO 1906/1908 3000 BR BKN015 
     BECMG 1908/1910 29011KT 
     PROB40 
     TEMPO 1911/1921 5000 -RA FEW026TCU 
     BECMG 1920/1922 22008KT
       
DAAT 191030Z 26010KT 9999 FEW046 SCT100 15/M17 Q1018
TAF DAAT 190500Z 1906/2006 16008KT 9999 SCT046 SCT100 
     PROB30 
     TEMPO 1906/1912 FEW040TCU 
     BECMG 1907/1910 34012KT
       
DABS 191000Z 11005KT 8000 SCT033 SCT100 07/01 Q1016
TAF DABS 190500Z 1906/2006 22008KT 9999 FEW030 
     PROB30 
     TEMPO 1906/1909 3000 BR BKN015 
     BECMG 1912/1914 28010KT 
     PROB40 
     TEMPO 1912/1922 FEW26TCU 
     BECMG 1920/1922 17007KT
       
DAOB 191000Z 27014KT 6000 -RA FEW013 SCT020 BKN026 05/03 Q1018
TAF DAOB 190500Z 1906/2006 22010KT 9999 BKN020 
     PROB40 
     TEMPO 1906/1918 5000 -RA FEW026CB 
     BECMG 1907/1910 30012KT 
     BECMG 1920/1923 22008KT 
     PROB40 
     TEMPO 2000/2006 5000 -RA BKN015 FEW026CB
       
DAFH 191000Z 36008KT CAVOK 10/03 Q1020
TAF DAFH 190800Z 1909/1918 28010KT 9999 FEW030 SCT100 
     PROB30 
     TEMPO 1910/1915 FEW030TCU
       
DAUT 191000Z 34004KT CAVOK 11/M03 Q1021
TAF DAUT 190800Z 1909/1918 VRB02KT CAVOK 
     BECMG 1912/1915 27010KT
       
DAOF 191000Z 31009KT CAVOK 12/04 Q1023
TAF DAOF 190800Z 1909/1918 29010KT CAVOK
       
DAON 191030Z 21014KT 9999 FEW020 SCT026 BKN100 12/03 Q1020
TAF DAON 190500Z 1906/2006 22008KT 9999 FEW020 BKN026 
     TEMPO 1908/1916 24015G25KT 6000 RA SCT026TCU
       
DAUK 191000Z 21003KT CAVOK 12/02 Q1018
TAF DAUK 190800Z 1909/1918 30008KT 9999 FEW040